Time;durP1;ratioP1;P1;durP2;ratioP2;P2;SDS_P1;SDS_P2;PMS_P1;PMS_P2;Temp;Humidity;BMP_temperature;BMP_pressure;BME280_temperature;BME280_humidity;BME280_pressure;Samples;Min_cycle;Max_cycle;Signal;HPM_P1;HPM_P2
2023/08/02 00:02:09;;;;;;;2.22;1.08;;;16.40;99.90;;;;;;4973261;28;20039;-80
2023/08/02 00:04:34;;;;;;;3.97;1.10;;;16.50;99.90;;;;;;4973696;28;20100;-79
2023/08/02 00:07:01;;;;;;;3.60;1.30;;;16.40;99.90;;;;;;4990862;28;20114;-79
2023/08/02 00:09:27;;;;;;;3.10;1.60;;;16.40;99.90;;;;;;4982950;28;20088;-79
2023/08/02 00:11:52;;;;;;;3.95;1.10;;;16.40;99.90;;;;;;4965520;28;20545;-79
2023/08/02 00:14:18;;;;;;;3.10;1.15;;;16.40;99.90;;;;;;4973783;28;20096;-80
2023/08/02 00:16:43;;;;;;;2.88;1.20;;;16.50;99.90;;;;;;4972873;28;20121;-79
2023/08/02 00:19:09;;;;;;;2.97;1.40;;;16.50;99.90;;;;;;4973609;28;20524;-80
2023/08/02 00:21:34;;;;;;;2.83;1.35;;;16.50;99.90;;;;;;4973420;28;20393;-79
2023/08/02 00:24:00;;;;;;;4.45;1.52;;;16.50;99.90;;;;;;4976048;28;20054;-79
2023/08/02 00:26:27;;;;;;;2.90;1.13;;;16.40;99.90;;;;;;4965028;28;20525;-79
2023/08/02 00:28:53;;;;;;;3.45;1.60;;;16.40;99.90;;;;;;4974055;28;20525;-79
2023/08/02 00:31:18;;;;;;;5.28;1.50;;;16.50;99.90;;;;;;4964787;28;20039;-79
2023/08/02 00:33:45;;;;;;;5.72;1.80;;;16.40;99.90;;;;;;4964282;28;20510;-79
2023/08/02 00:36:10;;;;;;;4.55;1.90;;;16.40;99.90;;;;;;4972783;28;20168;-79
2023/08/02 00:38:36;;;;;;;2.47;1.58;;;16.40;99.90;;;;;;4977210;28;20038;-79
2023/08/02 00:41:05;;;;;;;4.90;1.52;;;16.40;99.90;;;;;;4977094;28;20138;-79
2023/08/02 00:43:42;;;;;;;7.75;2.20;;;16.40;99.90;;;;;;4969521;28;20030;-79
2023/08/02 00:46:09;;;;;;;7.50;1.60;;;16.40;99.90;;;;;;4971493;28;20044;-79
2023/08/02 00:48:35;;;;;;;8.65;2.60;;;16.40;99.90;;;;;;4976959;28;20122;-80
2023/08/02 00:51:01;;;;;;;7.97;2.00;;;16.40;99.90;;;;;;4974735;28;20133;-80
2023/08/02 00:53:27;;;;;;;4.18;1.67;;;16.40;99.90;;;;;;4960092;28;20073;-79
2023/08/02 00:55:55;;;;;;;3.80;1.52;;;16.40;99.90;;;;;;4990812;28;20074;-80
2023/08/02 00:58:21;;;;;;;6.22;2.05;;;16.40;99.90;;;;;;4961537;28;20405;-79
2023/08/02 01:00:46;;;;;;;3.20;1.83;;;16.50;99.90;;;;;;4975989;28;20044;-79
2023/08/02 01:03:12;;;;;;;5.00;1.63;;;16.40;99.90;;;;;;4977488;28;20049;-79
2023/08/02 01:05:43;;;;;;;5.28;2.33;;;16.30;99.90;;;;;;4984646;28;20073;-79
2023/08/02 01:08:14;;;;;;;5.05;2.03;;;16.30;99.90;;;;;;4970535;28;20034;-79
2023/08/02 01:10:49;;;;;;;5.43;1.77;;;16.40;99.90;;;;;;4976162;28;20117;-79
2023/08/02 01:13:15;;;;;;;6.07;1.85;;;16.30;99.90;;;;;;4976454;28;20073;-80
2023/08/02 01:15:41;;;;;;;6.80;2.58;;;16.30;99.90;;;;;;4975550;28;20046;-79
2023/08/02 01:18:08;;;;;;;4.18;2.10;;;16.30;99.90;;;;;;4976730;28;20066;-79
2023/08/02 01:20:33;;;;;;;7.85;2.00;;;16.40;99.90;;;;;;4966861;28;21345;-79
2023/08/02 01:22:59;;;;;;;4.80;2.20;;;16.40;99.90;;;;;;4976325;28;20563;-80
2023/08/02 01:25:26;;;;;;;6.15;2.25;;;16.40;99.90;;;;;;4968193;28;20042;-80
2023/08/02 01:27:58;;;;;;;6.78;2.38;;;16.40;99.90;;;;;;4972340;28;20387;-79
2023/08/02 01:30:29;;;;;;;6.55;2.28;;;16.30;99.90;;;;;;4949292;28;20039;-79
2023/08/02 01:32:56;;;;;;;4.40;2.30;;;16.40;99.90;;;;;;4972024;28;20046;-80
2023/08/02 01:35:21;;;;;;;6.25;2.60;;;16.30;99.90;;;;;;4964166;28;20074;-80
2023/08/02 01:37:48;;;;;;;4.72;2.47;;;16.20;99.90;;;;;;4974798;28;20183;-79
2023/08/02 01:40:13;;;;;;;5.50;2.45;;;16.20;99.90;;;;;;4975476;28;20053;-79
2023/08/02 01:42:39;;;;;;;6.88;2.75;;;16.20;99.90;;;;;;4976119;28;20030;-79
2023/08/02 01:45:05;;;;;;;7.90;2.63;;;16.20;99.90;;;;;;4969986;28;20133;-80
2023/08/02 01:47:31;;;;;;;6.70;2.65;;;16.20;99.90;;;;;;4973881;28;20125;-79
2023/08/02 01:49:57;;;;;;;5.15;2.72;;;16.10;99.90;;;;;;4978605;28;20129;-79
2023/08/02 01:52:22;;;;;;;4.93;2.53;;;16.10;99.90;;;;;;4975433;28;20042;-79
2023/08/02 01:54:48;;;;;;;6.65;2.67;;;16.10;99.90;;;;;;4987637;28;20118;-80
2023/08/02 01:57:13;;;;;;;6.10;2.70;;;16.10;99.90;;;;;;4975401;28;20038;-79
2023/08/02 01:59:39;;;;;;;6.75;2.70;;;16.10;99.90;;;;;;4975667;28;20050;-79
2023/08/02 02:02:04;;;;;;;8.25;2.85;;;16.00;99.90;;;;;;4968324;28;20054;-79
2023/08/02 02:04:30;;;;;;;7.05;2.55;;;16.00;99.90;;;;;;4951281;28;20057;-79
2023/08/02 02:06:55;;;;;;;8.50;2.95;;;16.00;99.90;;;;;;4959461;28;20053;-79
2023/08/02 02:09:21;;;;;;;7.78;2.72;;;16.00;99.90;;;;;;4983823;28;20049;-79
2023/08/02 02:11:46;;;;;;;8.05;2.95;;;16.00;99.90;;;;;;4967631;28;20038;-79
2023/08/02 02:14:12;;;;;;;7.05;2.95;;;16.00;99.90;;;;;;4992436;28;20070;-79
2023/08/02 02:16:37;;;;;;;6.68;3.13;;;16.00;99.90;;;;;;4976476;28;20072;-79
2023/08/02 02:19:03;;;;;;;5.82;2.90;;;16.00;99.90;;;;;;4975333;28;20039;-79
2023/08/02 02:21:28;;;;;;;6.55;3.17;;;16.00;99.90;;;;;;4974010;28;20070;-80
2023/08/02 02:23:54;;;;;;;6.40;2.75;;;16.00;99.90;;;;;;4975276;28;20038;-79
2023/08/02 02:26:19;;;;;;;4.68;2.55;;;16.00;99.90;;;;;;4975178;28;20154;-80
2023/08/02 02:28:45;;;;;;;9.80;3.10;;;16.00;99.90;;;;;;4968363;28;20057;-79
2023/08/02 02:31:10;;;;;;;6.15;2.70;;;16.00;99.90;;;;;;4975319;28;20057;-80
2023/08/02 02:33:36;;;;;;;6.60;2.70;;;16.20;99.90;;;;;;4956236;28;20045;-80
2023/08/02 02:36:04;;;;;;;7.47;3.15;;;16.00;99.90;;;;;;4974974;28;20042;-79
2023/08/02 02:38:31;;;;;;;6.80;3.22;;;16.00;99.90;;;;;;4975912;28;20074;-79
2023/08/02 02:40:57;;;;;;;5.97;3.15;;;15.90;99.90;;;;;;4975155;28;20074;-79
2023/08/02 02:43:22;;;;;;;9.02;3.50;;;15.90;99.90;;;;;;4966669;28;20038;-79
2023/08/02 02:45:48;;;;;;;10.75;3.30;;;15.90;99.90;;;;;;4974718;28;20042;-79
2023/08/02 02:48:13;;;;;;;9.52;3.20;;;15.90;99.90;;;;;;4967230;28;20125;-79
2023/08/02 02:50:39;;;;;;;8.57;3.33;;;15.90;99.90;;;;;;4974036;28;20044;-80
2023/08/02 02:53:04;;;;;;;4.70;3.03;;;15.80;99.90;;;;;;4969415;28;20070;-80
2023/08/02 02:55:30;;;;;;;6.22;3.00;;;15.80;99.90;;;;;;4990519;28;20413;-80
2023/08/02 02:57:55;;;;;;;6.78;3.08;;;15.90;99.90;;;;;;4974912;28;20041;-80
2023/08/02 03:00:21;;;;;;;10.10;3.67;;;15.90;99.90;;;;;;4958443;28;20049;-80
2023/08/02 03:02:46;;;;;;;10.23;3.63;;;15.90;99.90;;;;;;4974536;28;20038;-79
2023/08/02 03:05:12;;;;;;;7.53;3.70;;;15.90;99.90;;;;;;4966767;28;20038;-79
2023/08/02 03:07:37;;;;;;;7.13;3.90;;;15.80;99.90;;;;;;4971283;28;20039;-79
2023/08/02 03:10:04;;;;;;;9.00;3.83;;;15.80;99.90;;;;;;4973835;28;20050;-79
2023/08/02 03:12:29;;;;;;;8.60;3.67;;;15.80;99.90;;;;;;4974111;28;20536;-79
2023/08/02 03:14:55;;;;;;;9.40;3.85;;;15.80;99.90;;;;;;4974835;28;20038;-79
2023/08/02 03:17:20;;;;;;;8.02;3.53;;;15.80;99.90;;;;;;4974681;28;20057;-80
2023/08/02 03:19:46;;;;;;;12.02;4.00;;;15.80;99.90;;;;;;4974055;28;20034;-79
2023/08/02 03:22:11;;;;;;;8.20;4.00;;;15.80;99.90;;;;;;4972938;28;20049;-79
2023/08/02 03:24:37;;;;;;;8.40;4.18;;;15.80;99.90;;;;;;4974618;28;20097;-79
2023/08/02 03:27:03;;;;;;;10.57;4.55;;;15.90;99.90;;;;;;4972802;28;20034;-80
2023/08/02 03:29:28;;;;;;;14.75;3.85;;;15.80;99.90;;;;;;4974664;28;20034;-79
2023/08/02 03:31:54;;;;;;;10.07;3.40;;;15.80;99.90;;;;;;4974672;28;20038;-80
2023/08/02 03:34:19;;;;;;;8.95;3.95;;;15.80;99.90;;;;;;4973600;28;20050;-79
2023/08/02 03:36:45;;;;;;;9.68;3.88;;;15.70;99.90;;;;;;4973455;28;20038;-80
2023/08/02 03:39:11;;;;;;;10.52;3.95;;;15.70;99.90;;;;;;4974870;28;20039;-79
2023/08/02 03:41:37;;;;;;;10.48;3.80;;;15.70;99.90;;;;;;4972286;28;20077;-80
2023/08/02 03:44:03;;;;;;;10.45;4.05;;;15.70;99.90;;;;;;4973765;28;20096;-80
2023/08/02 03:46:29;;;;;;;12.07;4.30;;;15.70;99.90;;;;;;4971592;28;20118;-80
2023/08/02 03:48:54;;;;;;;13.70;4.10;;;15.70;99.90;;;;;;4973846;28;20069;-79
2023/08/02 03:51:20;;;;;;;10.90;4.20;;;15.70;99.90;;;;;;4973544;28;20149;-79
2023/08/02 03:53:45;;;;;;;14.85;4.25;;;15.70;99.90;;;;;;4973721;28;20166;-79
2023/08/02 03:56:11;;;;;;;13.23;4.45;;;15.70;99.90;;;;;;4973393;28;20050;-79
2023/08/02 03:58:36;;;;;;;18.85;5.53;;;15.70;99.90;;;;;;4972955;28;20034;-79
2023/08/02 04:01:02;;;;;;;13.18;4.80;;;15.60;99.90;;;;;;4974296;28;20492;-80
2023/08/02 04:03:27;;;;;;;14.10;4.78;;;15.60;99.90;;;;;;4974165;28;20047;-79
2023/08/02 04:05:53;;;;;;;16.58;5.15;;;15.60;99.90;;;;;;4973120;28;20038;-79
2023/08/02 04:08:18;;;;;;;13.50;4.63;;;15.60;99.90;;;;;;4973545;28;20038;-79
2023/08/02 04:10:44;;;;;;;13.68;4.90;;;15.60;99.90;;;;;;4973599;28;20042;-79
2023/08/02 04:13:09;;;;;;;14.35;4.60;;;15.60;99.90;;;;;;4976562;28;20054;-81
2023/08/02 04:15:35;;;;;;;13.05;4.88;;;15.60;99.90;;;;;;4994846;28;20056;-79
2023/08/02 04:18:02;;;;;;;13.50;4.80;;;15.60;99.90;;;;;;4982236;28;20046;-79
2023/08/02 04:20:28;;;;;;;14.77;5.05;;;15.60;99.90;;;;;;4975767;28;20038;-79
2023/08/02 04:22:53;;;;;;;13.02;4.82;;;15.60;99.90;;;;;;4986938;28;20096;-79
2023/08/02 04:25:19;;;;;;;16.25;5.63;;;15.60;99.90;;;;;;4977096;28;20042;-79
2023/08/02 04:27:44;;;;;;;12.82;5.20;;;15.60;99.90;;;;;;4977631;28;20490;-80
2023/08/02 04:30:10;;;;;;;13.32;4.95;;;15.60;99.90;;;;;;4977922;28;20046;-79
2023/08/02 04:32:36;;;;;;;14.15;5.18;;;15.60;99.90;;;;;;4977053;28;20052;-79
2023/08/02 04:35:01;;;;;;;12.35;5.13;;;15.60;99.90;;;;;;4976908;28;20106;-80
2023/08/02 04:37:28;;;;;;;14.52;5.53;;;15.60;99.90;;;;;;4976315;28;20046;-79
2023/08/02 04:39:53;;;;;;;13.10;5.20;;;15.60;99.90;;;;;;4976026;28;20488;-79
2023/08/02 04:42:19;;;;;;;13.15;5.40;;;15.60;99.90;;;;;;4977837;28;20117;-78
2023/08/02 04:44:44;;;;;;;12.60;4.97;;;15.60;99.90;;;;;;4976656;28;20038;-78
2023/08/02 04:47:10;;;;;;;16.05;5.60;;;15.50;99.90;;;;;;4976592;28;20042;-79
2023/08/02 04:49:36;;;;;;;14.35;5.30;;;15.50;99.90;;;;;;4978023;28;20645;-79
2023/08/02 04:52:02;;;;;;;12.57;5.35;;;15.50;99.90;;;;;;4976070;28;20121;-78
2023/08/02 04:54:27;;;;;;;11.02;5.10;;;15.60;99.90;;;;;;4976689;28;20080;-79
2023/08/02 04:56:53;;;;;;;13.25;5.47;;;15.50;99.90;;;;;;4976303;28;20412;-79
2023/08/02 04:59:18;;;;;;;15.32;5.28;;;15.50;99.90;;;;;;4977290;28;20050;-78
2023/08/02 05:01:44;;;;;;;11.48;5.50;;;15.50;99.90;;;;;;4966294;28;20644;-79
2023/08/02 05:04:10;;;;;;;12.10;5.35;;;15.50;99.90;;;;;;4976303;28;20069;-79
2023/08/02 05:06:35;;;;;;;11.65;5.20;;;15.50;99.90;;;;;;4974068;28;20053;-78
2023/08/02 05:09:04;;;;;;;11.63;5.68;;;15.50;99.90;;;;;;4974049;28;20046;-79
2023/08/02 05:11:30;;;;;;;11.10;5.18;;;15.50;99.90;;;;;;4980630;28;20101;-79
2023/08/02 05:13:56;;;;;;;11.30;5.72;;;15.50;99.90;;;;;;4977901;28;20497;-79
2023/08/02 05:16:21;;;;;;;13.48;5.47;;;15.50;99.90;;;;;;4980254;28;20049;-79
2023/08/02 05:18:47;;;;;;;12.88;5.78;;;15.50;99.90;;;;;;4973889;28;20089;-81
2023/08/02 05:21:13;;;;;;;15.50;5.38;;;15.50;99.90;;;;;;4975319;28;20053;-79
2023/08/02 05:23:40;;;;;;;17.50;6.15;;;15.50;99.90;;;;;;4970667;28;20076;-79
2023/08/02 05:26:06;;;;;;;11.73;5.88;;;15.50;99.90;;;;;;4974221;28;20402;-79
2023/08/02 05:28:32;;;;;;;13.43;5.57;;;15.60;99.90;;;;;;4974148;28;20042;-79
2023/08/02 05:30:57;;;;;;;14.57;5.80;;;15.60;99.90;;;;;;4972806;28;20599;-79
2023/08/02 05:33:23;;;;;;;14.45;5.50;;;15.60;99.90;;;;;;4958442;28;20054;-79
2023/08/02 05:35:50;;;;;;;14.13;5.43;;;15.60;99.90;;;;;;4972886;28;20445;-79
2023/08/02 05:38:15;;;;;;;10.80;5.60;;;15.70;99.90;;;;;;4976127;28;20052;-79
2023/08/02 05:40:41;;;;;;;12.30;6.38;;;15.70;99.90;;;;;;4973119;28;20038;-79
2023/08/02 05:43:06;;;;;;;11.23;5.70;;;15.70;99.90;;;;;;4970913;28;20121;-79
2023/08/02 05:45:32;;;;;;;11.88;5.63;;;15.80;99.90;;;;;;4968364;28;20066;-79
2023/08/02 05:47:58;;;;;;;13.70;5.68;;;15.80;99.90;;;;;;4976786;28;20038;-79
2023/08/02 05:50:24;;;;;;;11.43;5.18;;;15.90;99.90;;;;;;4976091;28;20089;-79
2023/08/02 05:52:49;;;;;;;13.57;5.82;;;16.00;99.90;;;;;;4958945;28;20042;-79
2023/08/02 05:55:16;;;;;;;11.45;5.70;;;16.00;99.90;;;;;;4973964;28;20049;-80
2023/08/02 05:57:41;;;;;;;12.77;5.57;;;16.00;99.90;;;;;;4974152;28;20410;-79
2023/08/02 06:00:08;;;;;;;12.27;5.00;;;16.00;99.90;;;;;;4974431;28;20043;-79
2023/08/02 06:02:34;;;;;;;11.93;5.50;;;16.10;99.90;;;;;;4974899;28;20513;-79
2023/08/02 06:04:59;;;;;;;11.65;5.57;;;16.20;99.90;;;;;;4957952;28;20086;-78
2023/08/02 06:07:25;;;;;;;10.82;5.75;;;16.20;99.90;;;;;;4974347;28;20125;-79
2023/08/02 06:09:50;;;;;;;13.13;5.80;;;16.20;99.90;;;;;;4974905;28;20189;-80
2023/08/02 06:12:16;;;;;;;9.60;5.70;;;16.30;99.90;;;;;;4975099;28;20041;-80
2023/08/02 06:14:41;;;;;;;9.70;5.57;;;16.30;99.90;;;;;;4976463;28;20096;-80
2023/08/02 06:17:07;;;;;;;12.77;6.30;;;16.30;99.90;;;;;;4977338;28;20531;-79
2023/08/02 06:19:32;;;;;;;10.80;6.05;;;16.20;99.90;;;;;;4983725;28;20413;-79
2023/08/02 06:21:58;;;;;;;11.73;6.18;;;16.30;99.90;;;;;;4976438;28;20490;-79
2023/08/02 06:24:24;;;;;;;16.27;6.07;;;16.40;99.90;;;;;;4974992;28;20105;-79
2023/08/02 06:26:49;;;;;;;11.27;6.43;;;16.30;99.90;;;;;;4975683;28;20073;-80
2023/08/02 06:29:15;;;;;;;12.45;7.28;;;16.30;99.90;;;;;;4976073;28;20109;-79
2023/08/02 06:31:40;;;;;;;13.80;6.85;;;16.30;99.90;;;;;;4976167;28;20093;-79
2023/08/02 06:34:06;;;;;;;11.90;6.40;;;16.30;99.90;;;;;;4975886;28;20042;-79
2023/08/02 06:36:32;;;;;;;11.73;6.22;;;16.40;99.90;;;;;;4975050;28;20042;-81
2023/08/02 06:38:58;;;;;;;11.98;6.93;;;16.50;99.90;;;;;;4975690;28;20108;-79
2023/08/02 06:41:23;;;;;;;15.10;7.40;;;16.40;99.90;;;;;;4975661;28;20140;-79
2023/08/02 06:43:49;;;;;;;12.98;7.25;;;16.40;99.90;;;;;;4960113;28;20042;-79
2023/08/02 06:46:15;;;;;;;13.20;7.30;;;16.50;99.90;;;;;;4975333;28;20041;-79
2023/08/02 06:48:41;;;;;;;13.80;7.30;;;16.60;99.90;;;;;;4975499;28;20118;-80
2023/08/02 06:51:11;;;;;;;11.68;6.75;;;16.70;99.90;;;;;;4959301;28;20037;-81
2023/08/02 06:53:37;;;;;;;14.05;6.72;;;16.80;99.90;;;;;;4975958;28;20068;-81
2023/08/02 06:56:13;;;;;;;14.63;6.97;;;16.80;99.90;;;;;;4959563;28;20382;-79
2023/08/02 06:58:39;;;;;;;12.98;7.05;;;16.90;99.90;;;;;;4975585;28;20046;-81
2023/08/02 07:01:16;;;;;;;12.38;7.28;;;16.90;99.90;;;;;;4975358;28;20049;-79
2023/08/02 07:03:42;;;;;;;12.60;6.47;;;16.90;99.90;;;;;;4991865;28;20409;-81
2023/08/02 07:06:09;;;;;;;15.63;7.03;;;17.00;99.90;;;;;;4974007;28;20042;-80
2023/08/02 07:08:35;;;;;;;13.82;6.75;;;17.00;99.90;;;;;;4975849;28;20505;-79
2023/08/02 07:11:00;;;;;;;10.10;6.05;;;17.10;99.90;;;;;;4973881;28;20049;-79
2023/08/02 07:13:26;;;;;;;9.90;5.28;;;17.20;99.90;;;;;;4973629;28;20038;-80
2023/08/02 07:15:51;;;;;;;8.95;5.63;;;17.10;99.90;;;;;;4973729;28;20468;-78
2023/08/02 07:18:17;;;;;;;12.95;5.55;;;17.20;99.90;;;;;;4974601;28;20034;-80
2023/08/02 07:20:42;;;;;;;10.05;5.07;;;17.10;99.90;;;;;;4974303;28;20038;-80
2023/08/02 07:23:08;;;;;;;10.73;5.40;;;17.10;99.90;;;;;;4973519;28;20498;-79
2023/08/02 07:25:35;;;;;;;9.25;5.10;;;17.10;99.90;;;;;;4973787;28;20509;-80
2023/08/02 07:28:00;;;;;;;11.20;5.65;;;17.10;99.90;;;;;;4974388;28;20034;-79
2023/08/02 07:30:26;;;;;;;11.68;4.90;;;17.00;99.90;;;;;;4975455;28;20034;-80
2023/08/02 07:32:51;;;;;;;10.10;4.50;;;16.90;99.90;;;;;;4970310;28;20037;-81
2023/08/02 07:35:17;;;;;;;8.00;4.57;;;16.90;99.90;;;;;;4976388;28;20042;-79
2023/08/02 07:37:42;;;;;;;10.43;4.82;;;16.80;99.90;;;;;;4980930;28;20053;-81
2023/08/02 07:40:09;;;;;;;12.43;4.85;;;16.80;99.90;;;;;;4973511;28;20070;-79
2023/08/02 07:42:34;;;;;;;9.52;4.00;;;16.80;99.90;;;;;;4973585;28;20041;-80
2023/08/02 07:45:07;;;;;;;11.25;4.85;;;16.80;99.90;;;;;;4972109;28;20417;-80
2023/08/02 07:47:34;;;;;;;8.98;3.75;;;16.70;99.90;;;;;;4971726;28;20045;-80
2023/08/02 07:49:59;;;;;;;8.60;3.97;;;16.70;99.90;;;;;;4975103;28;20614;-81
2023/08/02 07:52:25;;;;;;;7.85;3.70;;;16.70;99.90;;;;;;4973128;28;20149;-80
2023/08/02 07:54:54;;;;;;;10.75;4.07;;;16.70;99.90;;;;;;4959103;28;20042;-81
2023/08/02 07:57:21;;;;;;;9.40;4.28;;;16.70;99.90;;;;;;4970433;28;20060;-81
2023/08/02 07:59:46;;;;;;;8.43;3.42;;;16.70;99.90;;;;;;4971103;28;20056;-79
2023/08/02 08:02:12;;;;;;;10.70;4.13;;;16.60;99.90;;;;;;4972443;28;20038;-81
2023/08/02 08:04:38;;;;;;;7.90;4.10;;;16.60;99.90;;;;;;4977201;28;20122;-80
2023/08/02 08:07:04;;;;;;;8.70;4.28;;;16.60;99.90;;;;;;4976201;28;20082;-80
2023/08/02 08:09:29;;;;;;;9.13;3.97;;;16.60;99.90;;;;;;4973461;28;20026;-80
2023/08/02 08:11:55;;;;;;;11.85;3.83;;;16.60;99.90;;;;;;4973186;28;20046;-80
2023/08/02 08:14:20;;;;;;;7.72;3.95;;;16.50;99.90;;;;;;4971302;28;20045;-81
2023/08/02 08:16:46;;;;;;;10.65;3.90;;;16.50;99.90;;;;;;4974307;28;20070;-82
2023/08/02 08:19:11;;;;;;;8.13;3.58;;;16.50;99.90;;;;;;4985251;28;20042;-82
2023/08/02 08:21:37;;;;;;;8.50;3.47;;;16.40;99.90;;;;;;4978623;28;20102;-81
2023/08/02 08:24:02;;;;;;;6.22;3.60;;;16.40;99.90;;;;;;4974216;28;20045;-81
2023/08/02 08:26:28;;;;;;;6.47;3.58;;;16.40;99.90;;;;;;4968068;28;20034;-79
2023/08/02 08:28:54;;;;;;;8.45;3.67;;;16.30;99.90;;;;;;4974637;28;20048;-78
2023/08/02 08:31:19;;;;;;;13.15;3.80;;;16.30;99.90;;;;;;4971681;28;20069;-80
2023/08/02 08:33:44;;;;;;;9.80;3.50;;;16.30;99.90;;;;;;4972359;28;20506;-79
2023/08/02 08:36:14;;;;;;;8.85;3.60;;;16.20;99.90;;;;;;4970631;28;20042;-79
2023/08/02 08:38:39;;;;;;;12.00;3.83;;;16.20;99.90;;;;;;4972776;28;20120;-78
2023/08/02 08:41:06;;;;;;;10.82;4.57;;;16.20;99.90;;;;;;4972495;28;20117;-80
2023/08/02 08:43:32;;;;;;;9.73;3.97;;;16.10;99.90;;;;;;4968691;28;20042;-79
2023/08/02 08:45:59;;;;;;;6.70;3.95;;;16.00;99.90;;;;;;4969544;28;20124;-78
2023/08/02 08:48:25;;;;;;;10.40;4.03;;;16.10;99.90;;;;;;4970140;28;20425;-83
2023/08/02 08:50:59;;;;;;;11.52;3.65;;;16.00;99.90;;;;;;4952545;28;20540;-77
2023/08/02 08:53:32;;;;;;;10.02;4.05;;;15.90;99.90;;;;;;4970002;28;20053;-77
2023/08/02 08:55:59;;;;;;;6.78;3.50;;;15.90;99.90;;;;;;4986516;28;20046;-78
2023/08/02 08:58:26;;;;;;;7.15;3.58;;;15.90;99.90;;;;;;4957612;28;20049;-77
2023/08/02 09:00:54;;;;;;;21.48;3.92;;;15.80;99.90;;;;;;4973563;28;20038;-78
2023/08/02 09:03:20;;;;;;;6.35;3.10;;;15.80;99.90;;;;;;4975756;28;20038;-78
2023/08/02 09:05:46;;;;;;;6.75;3.45;;;15.80;99.90;;;;;;4969325;28;20038;-79
2023/08/02 09:08:12;;;;;;;9.05;3.47;;;15.80;99.90;;;;;;4976508;28;20379;-79
2023/08/02 09:10:38;;;;;;;8.73;3.40;;;15.80;99.90;;;;;;4995096;28;20063;-77
2023/08/02 09:13:04;;;;;;;8.50;3.80;;;15.80;99.90;;;;;;4977372;28;20030;-77
2023/08/02 09:15:29;;;;;;;9.05;3.65;;;15.90;99.90;;;;;;4969231;28;20091;-77
2023/08/02 09:17:55;;;;;;;6.47;3.88;;;16.00;99.90;;;;;;4995684;28;20559;-78
2023/08/02 09:20:23;;;;;;;7.93;3.47;;;16.00;99.90;;;;;;4976523;28;20117;-78
2023/08/02 09:22:49;;;;;;;7.43;4.00;;;16.10;99.90;;;;;;4983600;28;20034;-77
2023/08/02 09:25:28;;;;;;;6.50;4.00;;;16.20;99.90;;;;;;4983290;28;20084;-78
2023/08/02 09:27:56;;;;;;;6.45;4.00;;;16.20;99.90;;;;;;4984110;28;20038;-78
2023/08/02 09:30:23;;;;;;;7.53;3.03;;;16.30;99.90;;;;;;4979029;28;20066;-78
2023/08/02 09:32:58;;;;;;;15.10;3.75;;;16.20;99.90;;;;;;4970865;28;20040;-77
2023/08/02 09:35:23;;;;;;;7.10;3.63;;;16.20;99.90;;;;;;4994661;28;20413;-76
2023/08/02 09:37:49;;;;;;;9.38;3.88;;;16.20;99.90;;;;;;4983871;28;20049;-77
2023/08/02 09:40:15;;;;;;;9.05;3.75;;;16.20;99.90;;;;;;4974853;28;20042;-79
2023/08/02 09:42:40;;;;;;;9.30;4.05;;;16.20;99.90;;;;;;4979496;28;20481;-78
2023/08/02 09:45:08;;;;;;;7.13;3.75;;;16.20;99.90;;;;;;4981382;28;20092;-77
2023/08/02 09:47:34;;;;;;;8.25;3.80;;;16.20;99.90;;;;;;4973596;28;20045;-77
2023/08/02 09:50:11;;;;;;;9.68;4.57;;;16.30;99.90;;;;;;4992797;28;20509;-78
2023/08/02 09:52:39;;;;;;;10.57;4.30;;;16.30;99.90;;;;;;4974245;28;20058;-79
2023/08/02 09:55:05;;;;;;;7.63;3.85;;;16.40;99.90;;;;;;4984152;28;20504;-77
2023/08/02 09:57:31;;;;;;;6.95;4.40;;;16.40;99.90;;;;;;4995201;28;20042;-78
2023/08/02 10:00:06;;;;;;;7.85;3.97;;;16.50;99.90;;;;;;4980594;28;20038;-79
2023/08/02 10:02:35;;;;;;;6.43;4.40;;;16.50;99.90;;;;;;4963220;28;20034;-78
2023/08/02 10:05:02;;;;;;;8.20;4.60;;;16.50;99.90;;;;;;4970387;28;20031;-78
2023/08/02 10:07:41;;;;;;;6.10;4.18;;;16.50;99.90;;;;;;4974041;28;20039;-77
2023/08/02 10:10:31;;;;;;;8.10;4.20;;;16.50;99.90;;;;;;4998075;28;20620;-78
2023/08/02 10:13:01;;;;;;;7.70;4.05;;;16.50;99.90;;;;;;4976009;28;20046;-77
2023/08/02 10:15:27;;;;;;;8.45;3.65;;;16.40;99.90;;;;;;4964588;28;20433;-77
2023/08/02 10:17:55;;;;;;;9.88;4.10;;;16.40;99.90;;;;;;4971828;28;20073;-80
2023/08/02 10:20:21;;;;;;;7.25;3.60;;;16.40;99.90;;;;;;4974797;28;20041;-78
2023/08/02 10:22:49;;;;;;;7.53;4.05;;;16.30;99.90;;;;;;4979686;28;20042;-78
2023/08/02 10:25:16;;;;;;;7.60;4.35;;;16.30;99.90;;;;;;4992111;28;20038;-78
2023/08/02 10:27:44;;;;;;;5.45;3.60;;;16.30;99.90;;;;;;4993786;28;20037;-78
2023/08/02 10:30:11;;;;;;;8.63;4.28;;;16.30;99.90;;;;;;4988261;28;20121;-80
2023/08/02 10:32:36;;;;;;;6.93;3.90;;;16.40;99.90;;;;;;4981089;28;20034;-81
2023/08/02 10:35:02;;;;;;;6.28;4.20;;;16.40;99.90;;;;;;4996234;28;20034;-79
2023/08/02 10:37:51;;;;;;;6.75;3.85;;;16.40;99.90;;;;;;4980406;28;20038;-79
2023/08/02 10:40:21;;;;;;;7.15;3.90;;;16.50;99.90;;;;;;4968968;28;20045;-79
2023/08/02 10:43:06;;;;;;;4.97;3.55;;;16.50;99.90;;;;;;4988000;28;20044;-77
2023/08/02 10:45:32;;;;;;;4.90;3.47;;;16.50;99.90;;;;;;4974508;28;20053;-78
2023/08/02 10:48:26;;;;;;;3.97;3.00;;;16.50;99.90;;;;;;4975945;28;20037;-78
2023/08/02 10:50:52;;;;;;;3.53;2.78;;;16.60;99.90;;;;;;4979996;28;20072;-78
2023/08/02 10:53:18;;;;;;;3.40;2.60;;;16.60;99.90;;;;;;4983823;28;20069;-81
2023/08/02 10:56:04;;;;;;;4.88;2.15;;;16.70;99.90;;;;;;4975563;28;20070;-78
2023/08/02 10:58:52;;;;;;;6.20;2.40;;;16.80;99.90;;;;;;4972869;28;20042;-79
2023/08/02 11:01:18;;;;;;;2.70;2.15;;;16.80;99.90;;;;;;4975789;28;20050;-79
2023/08/02 11:03:44;;;;;;;3.13;1.92;;;16.80;99.90;;;;;;4982442;28;20026;-78
2023/08/02 11:06:28;;;;;;;3.67;1.73;;;16.80;99.90;;;;;;4977068;28;20418;-78
2023/08/02 11:08:54;;;;;;;2.80;1.65;;;16.90;99.90;;;;;;4973826;28;20121;-78
2023/08/02 11:11:34;;;;;;;3.00;2.00;;;17.00;99.90;;;;;;4973458;28;20478;-78
2023/08/02 11:13:59;;;;;;;2.55;1.85;;;17.00;99.90;;;;;;4991646;28;20049;-79
2023/08/02 11:16:26;;;;;;;3.13;1.70;;;17.00;99.90;;;;;;4975592;28;20034;-79
2023/08/02 11:18:52;;;;;;;1.67;1.30;;;16.90;99.90;;;;;;4980003;28;20467;-79
2023/08/02 11:21:18;;;;;;;1.55;1.38;;;16.90;99.90;;;;;;4979347;28;20034;-77
2023/08/02 11:23:46;;;;;;;2.28;1.42;;;16.90;99.90;;;;;;4978694;28;20049;-77
2023/08/02 11:26:16;;;;;;;1.63;1.20;;;16.90;99.90;;;;;;4977238;28;20390;-79
2023/08/02 11:28:43;;;;;;;1.88;1.38;;;16.90;99.90;;;;;;4980247;28;20057;-77
2023/08/02 11:31:10;;;;;;;1.60;1.20;;;16.90;99.90;;;;;;4975545;28;20121;-78
2023/08/02 11:33:37;;;;;;;2.90;1.52;;;17.00;99.90;;;;;;4974290;28;20397;-78
2023/08/02 11:36:04;;;;;;;2.22;1.38;;;17.10;99.90;;;;;;4977603;28;20121;-78
2023/08/02 11:38:30;;;;;;;3.75;1.40;;;17.20;99.90;;;;;;4973042;28;20122;-75
2023/08/02 11:40:56;;;;;;;2.45;1.40;;;17.20;99.90;;;;;;4971391;28;20045;-79
2023/08/02 11:43:36;;;;;;;1.20;1.10;;;17.20;99.90;;;;;;4990397;28;20038;-77
2023/08/02 11:46:14;;;;;;;4.28;1.30;;;17.20;99.90;;;;;;4972867;28;20034;-76
2023/08/02 11:48:40;;;;;;;2.25;1.40;;;17.20;99.90;;;;;;4973733;28;20042;-76
2023/08/02 11:51:07;;;;;;;1.35;1.02;;;17.20;99.90;;;;;;4956554;28;20041;-76
2023/08/02 11:53:33;;;;;;;1.45;1.00;;;17.20;99.90;;;;;;4975302;28;20064;-77
2023/08/02 11:55:59;;;;;;;3.00;1.20;;;17.30;99.90;;;;;;4956922;28;20034;-77
2023/08/02 11:58:25;;;;;;;1.70;1.40;;;17.30;99.90;;;;;;4974493;28;20046;-76
2023/08/02 12:00:50;;;;;;;1.63;1.40;;;17.30;99.90;;;;;;4976901;28;20042;-77
2023/08/02 12:03:16;;;;;;;2.97;1.33;;;17.40;99.90;;;;;;4974219;28;20049;-76
2023/08/02 12:05:43;;;;;;;2.40;1.17;;;17.40;99.90;;;;;;4976445;28;20042;-76
2023/08/02 12:08:13;;;;;;;1.30;1.10;;;17.40;99.90;;;;;;4973842;28;20039;-77
2023/08/02 12:10:40;;;;;;;2.03;1.20;;;17.50;99.90;;;;;;4967413;28;20039;-77
2023/08/02 12:13:16;;;;;;;1.52;1.30;;;17.50;99.90;;;;;;4973359;28;20502;-77
2023/08/02 12:16:06;;;;;;;1.48;1.30;;;17.60;99.90;;;;;;4978073;28;20038;-76
2023/08/02 12:18:31;;;;;;;1.55;1.25;;;17.80;99.90;;;;;;4981952;28;20087;-78
2023/08/02 12:20:57;;;;;;;2.15;1.20;;;17.80;99.90;;;;;;4968360;28;20034;-76
2023/08/02 12:23:33;;;;;;;2.08;1.50;;;17.90;99.90;;;;;;4972884;28;20493;-76
2023/08/02 12:25:59;;;;;;;1.13;1.02;;;17.90;99.90;;;;;;4966858;28;20034;-77
2023/08/02 12:28:24;;;;;;;2.47;1.27;;;17.90;99.90;;;;;;4972444;28;20405;-77
2023/08/02 12:31:19;;;;;;;1.70;1.50;;;18.00;99.90;;;;;;4954081;28;20172;-77
2023/08/02 12:33:45;;;;;;;2.05;1.85;;;18.10;99.90;;;;;;5000612;28;20061;-77
2023/08/02 12:36:22;;;;;;;2.20;2.00;;;18.20;99.90;;;;;;4983213;28;20034;-77
2023/08/02 12:38:48;;;;;;;2.15;1.95;;;18.30;99.90;;;;;;4974504;28;20042;-78
2023/08/02 12:41:13;;;;;;;2.60;1.88;;;18.50;99.90;;;;;;4977589;28;20038;-76
2023/08/02 12:43:39;;;;;;;2.40;1.70;;;18.80;99.90;;;;;;4980117;28;20038;-77